Back to top

Laramie, WY weather

Laramie Regional Airport, Laramie, WY: 8/18/2022 04:53
Visibility10 statute mileslots of clouds
View 7-Day Forecast
Area Summary
Sky/CloudsSolid Overcast at 11000ft
Weather [last 24 hours]None
Pressure30.36 in.Hg (1028 hPa)
Dew Point39 °F (3.9 °C)
Relative Humidity61.2 %
Temperature52 °F (11.1 °C)red thermometer
Reading TimeMinimum to Maximum Temperature
6-hr ending 8/17@23:5355 °F to 77 °F (12.8 °C to 25 °C)
6-hr ending 8/17@17:5372 °F to 79 °F (22.2 °C to 26.1 °C)
6-hr ending 8/17@11:5346 °F to 73 °F (7.8 °C to 22.8 °C)
6-hr ending 8/17@05:5348 °F to 57 °F (8.9 °C to 13.9 °C)
24-hr ending 8/18@00:5346 °F to 79 °F (7.8 °C to 26.1 °C)
Wind0 MPH (0 KT) green arrow pointing at 0 degrees
Wind FromNorth (000 Degrees)
Twilight Begins05:46Sunshine Yesterday
Sunrise06:15N/A
Sunset19:57
Twilight Ends20:27
METARKLAR 181053Z AUTO 00000KT 10SM OVC110 11/04 A3036 RMK AO2 SLP170 T01110039
Tags: